Terminal Aerodrome Forecast
Issued by NWS Portland, ME

Home | Current Version | Previous Version | Text Only | Print | Product List | Glossary On
Versions: 1 2 3 4 5 6 7 8 9 10 11 12 13 14 15 16
000
FTUS41 KGYX 301131
TAFCON
TAF
KCON 301131Z 3012/3112 00000KT P6SM OVC014
     FM301900 22010KT P6SM SCT035 BKN100
     FM310100 VRB05KT P6SM BKN250
     FM310600 00000KT 4SM BR BKN250=

USA.gov is the U.S. government's official web portal to all federal, state and local government web resources and services.